Terminal Aerodrome Forecast
Issued by NWS Shreveport, LA

Home | Current Version | Previous Version | Text Only | Print | Product List | Glossary On
Versions: 1 2 3 4 5 6 7 8 9 10 11 12 13 14 15 16 17 18 19 20 21 22
009
FTUS44 KSHV 230706 AAB
TAFMLU
TAF AMD
KMLU 230706Z 2307/2406 35005KT P6SM -RA BKN007 OVC010
      TEMPO 2307/2309 5SM -RA SCT008 OVC015
     FM230900 35008KT P6SM BKN008 OVC015
     FM231500 35012G16KT P6SM OVC015
     FM231900 35012G18KT P6SM SCT025 BKN040
     FM232100 35010KT P6SM OVC040
     FM240000 01006KT P6SM SKC=

USA.gov is the U.S. government's official web portal to all federal, state and local government web resources and services.